createdAt,value
2023-02-17T00:01:31.121Z,100.63
2023-02-17T00:03:59.438Z,103.30
2023-02-17T00:06:29.754Z,100.18
2023-02-17T00:08:58.087Z,97.72
2023-02-17T00:11:25.528Z,106.35
2023-02-17T00:13:54.592Z,102.18
2023-02-17T00:16:26.450Z,104.93
2023-02-17T00:18:57.356Z,102.80
2023-02-17T00:21:29.616Z,106.50
2023-02-17T00:23:58.702Z,106.97
2023-02-17T00:26:25.534Z,103.63
2023-02-17T00:28:52.386Z,113.82
2023-02-17T00:31:23.193Z,96.40
2023-02-17T00:33:50.412Z,105.18
2023-02-17T00:36:19.986Z,106.53
2023-02-17T00:38:48.749Z,110.55
2023-02-17T00:41:18.232Z,115.50
2023-02-17T00:43:46.114Z,113.20
2023-02-17T00:46:13.780Z,115.22
2023-02-17T00:48:41.334Z,116.70
2023-02-17T00:51:09.291Z,121.47
2023-02-17T00:53:37.010Z,120.40
2023-02-17T00:56:05.092Z,120.47
2023-02-17T00:58:32.190Z,119.65
2023-02-17T01:00:59.422Z,124.35
2023-02-17T01:03:27.084Z,116.32
2023-02-17T01:05:55.163Z,124.57
2023-02-17T01:08:23.314Z,124.78
2023-02-17T01:10:51.598Z,129.32
2023-02-17T01:13:19.750Z,134.65
2023-02-17T01:15:52.466Z,132.98
2023-02-17T01:18:23.705Z,131.93
2023-02-17T01:20:51.569Z,131.18
2023-02-17T01:23:18.827Z,127.18
2023-02-17T01:25:48.966Z,139.07
2023-02-17T01:28:20.741Z,145.15
2023-02-17T01:30:49.047Z,132.07
2023-02-17T01:33:16.034Z,141.27
2023-02-17T01:35:43.122Z,134.82
2023-02-17T01:38:10.018Z,145.20
2023-02-17T01:40:37.102Z,129.13
2023-02-17T01:43:04.219Z,133.35
2023-02-17T01:45:47.528Z,139.02
2023-02-17T01:50:52.896Z,128.60
2023-02-17T01:53:30.984Z,131.27
2023-02-17T01:55:58.213Z,127.82
2023-02-17T01:58:27.374Z,129.50
2023-02-17T02:01:00.024Z,132.93
2023-02-17T02:03:31.663Z,130.18
2023-02-17T02:06:01.339Z,130.80
2023-02-17T02:08:42.883Z,128.98
2023-02-17T02:11:09.751Z,128.77
2023-02-17T02:13:36.794Z,131.63
2023-02-17T02:16:54.015Z,136.68
2023-02-17T02:20:09.023Z,132.48
2023-02-17T02:23:09.526Z,122.03
2023-02-17T02:26:52.704Z,127.35
2023-02-17T02:30:05.215Z,115.80
2023-02-17T02:33:35.572Z,122.25
2023-02-17T02:36:33.373Z,116.10
2023-02-17T02:39:07.495Z,121.55
2023-02-17T02:41:40.021Z,122.35
2023-02-17T02:44:14.786Z,117.55
2023-02-17T02:46:41.848Z,119.18
2023-02-17T02:49:09.789Z,119.32
2023-02-17T02:52:09.472Z,118.78
2023-02-17T02:54:55.901Z,115.68
2023-02-17T02:58:00.168Z,121.65
2023-02-17T03:00:48.897Z,119.50
2023-02-17T03:03:26.026Z,119.72
2023-02-17T03:06:14.768Z,124.68
2023-02-17T03:09:07.464Z,121.32
2023-02-17T03:11:34.935Z,92.43
2023-02-17T03:14:11.960Z,125.85
2023-02-17T03:16:41.604Z,114.63
2023-02-17T03:19:11.517Z,120.70
2023-02-17T03:22:07.604Z,119.32
2023-02-17T03:24:35.414Z,112.57
2023-02-17T03:27:02.778Z,116.82
2023-02-17T03:29:29.663Z,118.20
2023-02-17T03:31:56.907Z,122.43
2023-02-17T03:34:23.843Z,114.82
2023-02-17T03:36:50.677Z,118.75
2023-02-17T03:39:17.669Z,113.72
2023-02-17T03:41:44.579Z,114.03
2023-02-17T03:44:11.630Z,113.28
2023-02-17T03:46:40.928Z,116.40
2023-02-17T03:49:07.706Z,119.32
2023-02-17T03:51:34.634Z,121.38
2023-02-17T03:54:01.837Z,117.80
2023-02-17T03:56:28.782Z,109.85
2023-02-17T03:58:55.839Z,120.07
2023-02-17T04:01:22.904Z,117.28
2023-02-17T04:03:50.379Z,115.72
2023-02-17T04:06:17.994Z,112.85
2023-02-17T04:08:44.829Z,111.25
2023-02-17T04:11:11.795Z,102.82
2023-02-17T04:13:40.120Z,104.90
2023-02-17T04:16:10.059Z,102.22
2023-02-17T04:18:37.851Z,103.00
2023-02-17T04:21:06.183Z,93.32
2023-02-17T04:23:38.731Z,97.85
2023-02-17T04:26:07.716Z,95.45
2023-02-17T04:28:37.889Z,96.45
2023-02-17T04:31:04.999Z,91.40
2023-02-17T04:33:31.879Z,86.28
2023-02-17T04:36:01.454Z,88.60
2023-02-17T04:38:31.403Z,93.18
2023-02-17T04:41:00.322Z,88.60
2023-02-17T04:43:28.813Z,89.18
2023-02-17T04:45:56.065Z,86.90
2023-02-17T04:48:24.032Z,84.65
2023-02-17T04:50:51.672Z,87.60
2023-02-17T04:53:19.302Z,85.07
2023-02-17T05:09:54.657Z,91.38
2023-02-17T05:12:21.670Z,93.45
2023-02-17T05:14:48.798Z,87.20
2023-02-17T05:17:15.797Z,89.40
2023-02-17T05:19:42.784Z,84.85
2023-02-17T05:22:10.051Z,82.88
2023-02-17T05:24:38.886Z,93.88
2023-02-17T05:27:06.457Z,87.15
2023-02-17T05:29:33.510Z,86.88
2023-02-17T05:32:00.602Z,92.57
2023-02-17T05:34:27.756Z,98.32
2023-02-17T05:36:54.746Z,97.93
2023-02-17T05:39:21.767Z,93.75
2023-02-17T05:41:48.762Z,90.43
2023-02-17T05:44:15.835Z,98.32
2023-02-17T05:46:42.842Z,96.95
2023-02-17T05:49:09.923Z,96.88
2023-02-17T05:51:37.435Z,103.30
2023-02-17T05:54:04.902Z,102.13
2023-02-17T05:56:33.483Z,104.00
2023-02-17T05:59:01.079Z,105.97
2023-02-17T06:01:28.243Z,106.80
2023-02-17T06:03:55.499Z,103.50
2023-02-17T06:06:22.488Z,101.97
2023-02-17T06:08:49.436Z,108.32
2023-02-17T06:11:16.391Z,109.07
2023-02-17T06:13:43.384Z,105.97
2023-02-17T06:16:10.545Z,103.72
2023-02-17T06:18:37.651Z,107.45
2023-02-17T06:21:05.097Z,106.97
2023-02-17T06:23:32.028Z,105.90
2023-02-17T06:25:59.486Z,106.97
2023-02-17T06:28:26.532Z,107.85
2023-02-17T06:30:53.690Z,107.55
2023-02-17T06:33:20.710Z,104.43
2023-02-17T06:35:52.033Z,96.70
2023-02-17T06:38:19.857Z,97.78
2023-02-17T06:40:47.070Z,109.88
2023-02-17T06:43:14.442Z,94.22
2023-02-17T06:45:41.363Z,107.95
2023-02-17T06:48:08.950Z,104.65
2023-02-17T06:50:36.266Z,93.85
2023-02-17T06:53:03.569Z,93.13
2023-02-17T06:55:30.965Z,98.80
2023-02-17T06:57:58.081Z,93.68
2023-02-17T07:00:25.031Z,95.38
2023-02-17T07:02:52.126Z,95.07
2023-02-17T07:05:19.436Z,93.70
2023-02-17T07:07:46.540Z,96.88
2023-02-17T07:10:13.746Z,90.57
2023-02-17T07:12:41.046Z,91.68
2023-02-17T07:15:12.090Z,90.63
2023-02-17T07:17:39.457Z,100.95
2023-02-17T07:20:07.584Z,90.07
2023-02-17T07:22:34.489Z,92.57
2023-02-17T07:25:01.563Z,100.57
2023-02-17T07:27:29.285Z,90.15
2023-02-17T07:29:56.518Z,88.65
2023-02-17T07:32:23.628Z,86.38
2023-02-17T07:34:50.554Z,85.55
2023-02-17T07:37:20.143Z,87.35
2023-02-17T07:39:48.051Z,84.95
2023-02-17T07:42:15.393Z,89.43
2023-02-17T07:44:42.405Z,85.57
2023-02-17T07:47:10.083Z,83.05
2023-02-17T07:49:37.105Z,86.10
2023-02-17T07:52:05.439Z,80.10
2023-02-17T07:54:32.743Z,86.72
2023-02-17T07:57:00.287Z,84.05
2023-02-17T07:59:27.562Z,85.20
2023-02-17T08:01:54.645Z,82.07
2023-02-17T08:04:21.696Z,79.60
2023-02-17T08:06:48.934Z,83.43
2023-02-17T08:09:34.901Z,82.90
2023-02-17T08:12:20.866Z,83.22
2023-02-17T08:14:47.963Z,83.50
2023-02-17T08:17:15.378Z,79.03
2023-02-17T08:19:48.329Z,77.97
2023-02-17T08:22:17.608Z,75.30
2023-02-17T08:24:45.627Z,81.38
2023-02-17T08:27:15.461Z,81.65
2023-02-17T08:29:43.771Z,83.22
2023-02-17T08:32:12.416Z,82.10
2023-02-17T08:34:39.512Z,81.40
2023-02-17T08:37:07.584Z,85.10
2023-02-17T08:39:35.754Z,90.32
2023-02-17T08:42:05.826Z,84.35
2023-02-17T08:44:36.143Z,85.07
2023-02-17T08:47:05.817Z,85.65
2023-02-17T08:49:33.594Z,85.65
2023-02-17T08:52:00.832Z,84.32
2023-02-17T08:54:30.535Z,87.60
2023-02-17T08:56:58.749Z,88.22
2023-02-17T08:59:25.880Z,91.45
2023-02-17T09:01:53.085Z,91.22
2023-02-17T09:04:20.434Z,91.57
2023-02-17T09:06:56.525Z,92.35
2023-02-17T09:09:29.203Z,87.00
2023-02-17T09:11:58.559Z,90.60
2023-02-17T09:14:25.839Z,87.90
2023-02-17T09:16:54.484Z,93.93
2023-02-17T09:19:22.389Z,93.07
2023-02-17T09:21:50.417Z,89.80
2023-02-17T09:24:18.216Z,90.28
2023-02-17T09:26:45.653Z,89.88
2023-02-17T09:29:12.777Z,82.60
2023-02-17T09:31:40.042Z,85.55
2023-02-17T09:34:07.421Z,81.93
2023-02-17T09:36:40.697Z,79.43
2023-02-17T09:39:08.129Z,81.32
2023-02-17T09:41:55.565Z,77.80
2023-02-17T09:44:26.316Z,77.40
2023-02-17T09:47:02.444Z,71.07
2023-02-17T09:49:48.357Z,78.50
2023-02-17T09:53:05.135Z,76.72
2023-02-17T09:55:41.159Z,68.72
2023-02-17T09:58:24.413Z,73.15
2023-02-17T10:03:39.878Z,73.50
2023-02-17T10:06:29.408Z,66.95
2023-02-17T10:09:23.742Z,71.65
2023-02-17T10:12:13.808Z,67.47
2023-02-17T10:15:19.087Z,65.28
2023-02-17T10:18:32.525Z,63.15
2023-02-17T10:21:10.342Z,65.90
2023-02-17T10:23:39.235Z,59.05
2023-02-17T10:26:31.321Z,60.83
2023-02-17T10:29:30.244Z,62.25
2023-02-17T10:32:25.641Z,58.05
2023-02-17T10:35:23.383Z,76.70
2023-02-17T10:38:06.630Z,65.85
2023-02-17T10:43:07.635Z,60.50
2023-02-17T10:45:49.852Z,58.60
2023-02-17T10:48:24.115Z,57.75
2023-02-17T10:50:53.932Z,58.95
2023-02-17T10:53:31.490Z,62.38
2023-02-17T10:56:20.692Z,55.97
2023-02-17T10:58:59.210Z,58.65
2023-02-17T11:01:28.230Z,58.45
2023-02-17T11:04:10.690Z,59.28
2023-02-17T11:06:51.054Z,56.47
2023-02-17T11:09:29.577Z,56.05
2023-02-17T11:12:12.306Z,56.20
2023-02-17T11:14:50.590Z,58.75
2023-02-17T11:17:44.263Z,58.05
2023-02-17T11:20:14.070Z,53.03
2023-02-17T11:23:06.523Z,58.67
2023-02-17T11:25:37.820Z,56.20
2023-02-17T11:28:14.734Z,56.28
2023-02-17T11:30:55.574Z,57.45
2023-02-17T11:33:44.375Z,58.10
2023-02-17T11:36:32.340Z,58.25
2023-02-17T11:39:00.886Z,52.53
2023-02-17T11:41:38.386Z,52.13
2023-02-17T11:44:09.244Z,62.58
2023-02-17T11:46:55.336Z,57.80
2023-02-17T11:49:43.914Z,57.33
2023-02-17T11:52:45.734Z,53.58
2023-02-17T11:55:46.462Z,58.75
2023-02-17T11:58:54.958Z,57.55
2023-02-17T12:02:06.848Z,53.47
2023-02-17T12:04:40.832Z,58.63
2023-02-17T12:07:25.512Z,54.97
2023-02-17T12:10:43.041Z,55.80
2023-02-17T12:13:23.361Z,51.72
2023-02-17T12:16:40.938Z,53.78
2023-02-17T12:19:50.579Z,49.10
2023-02-17T12:22:29.605Z,46.30
2023-02-17T12:25:31.873Z,45.28
2023-02-17T12:28:41.012Z,47.05
2023-02-17T12:31:39.893Z,42.95
2023-02-17T12:34:30.739Z,45.00
2023-02-17T12:37:00.175Z,43.75
2023-02-17T12:39:40.198Z,40.53
2023-02-17T12:42:23.315Z,74.82
2023-02-17T12:44:57.683Z,54.95
2023-02-17T12:47:46.573Z,44.40
2023-02-17T12:50:39.733Z,39.33
2023-02-17T12:53:21.866Z,48.50
2023-02-17T12:55:58.835Z,42.95
2023-02-17T12:58:29.477Z,34.45
2023-02-17T13:01:09.452Z,32.50
2023-02-17T13:03:37.622Z,34.50
2023-02-17T13:06:23.022Z,44.40
2023-02-17T13:09:21.217Z,30.77
2023-02-17T13:11:49.082Z,36.95
2023-02-17T13:14:40.847Z,39.90
2023-02-17T13:17:37.790Z,45.95
2023-02-17T13:20:10.827Z,47.33
2023-02-17T13:25:30.674Z,32.72
2023-02-17T13:28:16.664Z,36.80
2023-02-17T13:30:52.291Z,34.58
2023-02-17T13:33:22.585Z,39.00
2023-02-17T13:35:50.317Z,31.17
2023-02-17T13:38:32.963Z,42.78
2023-02-17T13:41:05.854Z,38.67
2023-02-17T13:43:42.840Z,71.38
2023-02-17T13:46:26.096Z,38.13
2023-02-17T13:51:34.488Z,47.72
2023-02-17T13:54:12.489Z,41.05
2023-02-17T13:56:43.012Z,50.45
2023-02-17T13:59:24.915Z,36.60
2023-02-17T14:01:55.104Z,33.42
2023-02-17T14:04:31.501Z,52.28
2023-02-17T14:07:01.113Z,42.28
2023-02-17T14:09:34.809Z,37.42
2023-02-17T14:12:06.992Z,25.85
2023-02-17T14:14:39.979Z,20.77
2023-02-17T14:20:01.069Z,18.52
2023-02-17T14:22:33.001Z,18.13
2023-02-17T14:25:25.732Z,29.08
2023-02-17T14:27:53.010Z,22.90
2023-02-17T14:30:34.446Z,21.98
2023-02-17T14:33:25.554Z,16.05
2023-02-17T14:36:04.776Z,14.52
2023-02-17T14:38:40.672Z,14.45
2023-02-17T14:41:09.715Z,15.88
2023-02-17T14:43:37.098Z,17.58
2023-02-17T14:46:05.666Z,14.02
2023-02-17T14:48:33.231Z,14.93
2023-02-17T14:51:00.454Z,18.48
2023-02-17T14:53:33.294Z,13.10
2023-02-17T14:56:21.535Z,13.05
2023-02-17T14:58:49.495Z,15.90
2023-02-17T15:01:20.264Z,12.95
2023-02-17T15:03:47.572Z,13.82
2023-02-17T15:06:26.015Z,16.00
2023-02-17T15:08:55.197Z,12.90
2023-02-17T15:11:34.489Z,12.95
2023-02-17T15:14:03.016Z,12.18
2023-02-17T15:16:31.318Z,14.85
2023-02-17T15:18:59.653Z,16.40
2023-02-17T15:21:31.569Z,15.57
2023-02-17T15:24:06.202Z,12.68
2023-02-17T15:26:33.578Z,13.35
2023-02-17T15:29:01.404Z,12.80
2023-02-17T15:31:34.021Z,13.38
2023-02-17T15:34:06.583Z,13.27
2023-02-17T15:36:35.260Z,12.25
2023-02-17T15:39:02.435Z,11.95
2023-02-17T15:41:31.730Z,11.82
2023-02-17T15:44:01.310Z,11.60
2023-02-17T15:46:33.435Z,10.65
2023-02-17T15:49:01.092Z,11.93
2023-02-17T15:51:28.318Z,12.30
2023-02-17T15:53:55.462Z,12.13
2023-02-17T15:56:27.368Z,13.00
2023-02-17T15:58:55.560Z,13.85
2023-02-17T16:01:32.858Z,21.63
2023-02-17T16:04:00.275Z,57.30
2023-02-17T16:06:29.232Z,13.32
2023-02-17T16:08:58.891Z,12.65
2023-02-17T16:11:28.161Z,14.32
2023-02-17T16:13:56.350Z,17.90
2023-02-17T16:16:29.763Z,12.57
2023-02-17T16:18:57.518Z,11.25
2023-02-17T16:21:24.701Z,10.73
2023-02-17T16:23:59.537Z,10.68
2023-02-17T16:26:36.193Z,11.23
2023-02-17T16:29:21.249Z,10.48
2023-02-17T16:31:49.277Z,15.27
2023-02-17T16:34:23.741Z,11.90
2023-02-17T16:36:57.412Z,12.57
2023-02-17T16:39:24.977Z,11.65
2023-02-17T16:41:52.428Z,15.07
2023-02-17T16:44:22.931Z,16.88
2023-02-17T16:46:56.500Z,12.60
2023-02-17T16:49:32.699Z,9.32
2023-02-17T16:52:07.456Z,11.35
2023-02-17T16:54:35.804Z,10.55
2023-02-17T16:57:03.903Z,26.33
2023-02-17T16:59:31.039Z,12.43
2023-02-17T17:01:58.221Z,10.30
2023-02-17T17:04:25.371Z,9.13
2023-02-17T17:06:53.791Z,12.55
2023-02-17T17:09:24.560Z,9.35
2023-02-17T17:11:52.253Z,9.15
2023-02-17T17:14:21.545Z,11.27
2023-02-17T17:16:57.701Z,9.80
2023-02-17T17:19:25.362Z,10.23
2023-02-17T17:21:53.079Z,10.43
2023-02-17T17:24:20.603Z,9.68
2023-02-17T17:26:51.558Z,9.93
2023-02-17T17:29:20.583Z,11.50
2023-02-17T17:31:48.244Z,10.50
2023-02-17T17:34:15.561Z,11.25
2023-02-17T17:36:46.564Z,10.57
2023-02-17T17:39:24.271Z,15.40
2023-02-17T17:41:52.049Z,12.38
2023-02-17T17:44:21.943Z,9.98
2023-02-17T17:46:49.314Z,12.00
2023-02-17T17:49:18.513Z,10.30
2023-02-17T17:51:46.101Z,12.68
2023-02-17T17:54:13.336Z,11.02
2023-02-17T17:56:43.261Z,13.80
2023-02-17T17:59:15.347Z,12.75
2023-02-17T18:01:45.384Z,12.13
2023-02-17T18:04:13.323Z,13.25
2023-02-17T18:06:52.248Z,11.35
2023-02-17T18:09:32.196Z,14.48
2023-02-17T18:12:07.425Z,15.27
2023-02-17T18:14:38.061Z,14.70
2023-02-17T18:17:07.468Z,15.18
2023-02-17T18:19:35.039Z,17.20
2023-02-17T18:22:04.472Z,24.08
2023-02-17T18:24:32.144Z,21.35
2023-02-17T18:26:59.570Z,17.30
2023-02-17T18:29:27.760Z,16.35
2023-02-17T18:31:54.890Z,15.43
2023-02-17T18:34:22.121Z,12.60
2023-02-17T18:36:49.178Z,12.43
2023-02-17T18:39:16.284Z,10.68
2023-02-17T18:41:43.392Z,12.68
2023-02-17T18:44:11.560Z,8.63
2023-02-17T18:46:40.023Z,8.40
2023-02-17T18:49:07.589Z,9.20
2023-02-17T18:51:35.047Z,11.05
2023-02-17T18:54:03.563Z,14.05
2023-02-17T18:56:33.181Z,10.10
2023-02-17T18:59:00.617Z,10.05
2023-02-17T19:01:41.801Z,10.10
2023-02-17T19:04:13.155Z,14.05
2023-02-17T19:06:41.296Z,14.57
2023-02-17T19:09:08.455Z,15.20
2023-02-17T19:11:36.102Z,12.18
2023-02-17T19:14:04.066Z,11.10
2023-02-17T19:16:34.227Z,12.73
2023-02-17T19:19:01.823Z,17.02
2023-02-17T19:21:29.197Z,14.18
2023-02-17T19:23:56.673Z,10.45
2023-02-17T19:26:23.732Z,13.85
2023-02-17T19:28:51.255Z,13.88
2023-02-17T19:31:20.703Z,12.35
2023-02-17T19:33:48.376Z,12.50
2023-02-17T19:36:20.045Z,13.23
2023-02-17T19:38:48.764Z,16.02
2023-02-17T19:41:17.804Z,16.85
2023-02-17T19:43:46.298Z,14.13
2023-02-17T19:46:16.066Z,16.90
2023-02-17T19:48:43.284Z,13.02
2023-02-17T19:51:13.912Z,12.38
2023-02-17T19:53:45.685Z,14.95
2023-02-17T19:56:23.413Z,13.70
2023-02-17T19:58:52.430Z,20.17
2023-02-17T20:01:24.351Z,18.52
2023-02-17T20:03:54.603Z,20.70
2023-02-17T20:06:28.962Z,17.65
2023-02-17T20:09:00.842Z,18.98
2023-02-17T20:11:29.413Z,17.27
2023-02-17T20:13:59.866Z,19.35
2023-02-17T20:16:28.498Z,16.88
2023-02-17T20:18:55.990Z,20.58
2023-02-17T20:21:27.004Z,31.83
2023-02-17T20:23:55.199Z,20.70
2023-02-17T20:26:33.272Z,20.90
2023-02-17T20:29:01.906Z,19.52
2023-02-17T20:31:29.429Z,29.15
2023-02-17T20:33:57.098Z,22.25
2023-02-17T20:36:25.086Z,19.75
2023-02-17T20:38:52.553Z,28.45
2023-02-17T20:41:22.716Z,18.42
2023-02-17T20:43:51.469Z,17.02
2023-02-17T20:46:28.782Z,19.45
2023-02-17T20:48:59.326Z,21.63
2023-02-17T20:51:26.513Z,20.70
2023-02-17T20:53:53.480Z,18.75
2023-02-17T20:56:24.514Z,22.65
2023-02-17T20:58:52.940Z,22.13
2023-02-17T21:01:20.171Z,19.13
2023-02-17T21:03:47.488Z,22.20
2023-02-17T21:06:26.901Z,19.65
2023-02-17T21:09:02.106Z,19.35
2023-02-17T21:11:30.304Z,24.73
2023-02-17T21:13:57.472Z,20.65
2023-02-17T21:16:31.291Z,17.83
2023-02-17T21:19:00.968Z,20.45
2023-02-17T21:21:29.924Z,23.30
2023-02-17T21:23:59.337Z,19.52
2023-02-17T21:26:27.562Z,15.13
2023-02-17T21:28:55.157Z,18.48
2023-02-17T21:31:22.710Z,16.67
2023-02-17T21:33:49.897Z,26.98
2023-02-17T21:36:18.655Z,19.67
2023-02-17T21:38:47.495Z,14.88
2023-02-17T21:41:20.028Z,16.95
2023-02-17T21:44:06.874Z,17.80
2023-02-17T21:46:37.522Z,20.00
2023-02-17T21:49:04.879Z,16.35
2023-02-17T21:51:32.522Z,17.58
2023-02-17T21:54:00.264Z,15.85
2023-02-17T21:56:27.636Z,12.80
2023-02-17T21:58:56.363Z,14.82
2023-02-17T22:01:26.562Z,17.95
2023-02-17T22:03:54.531Z,12.95
2023-02-17T22:06:29.352Z,18.48
2023-02-17T22:08:58.620Z,15.55
2023-02-17T22:11:30.400Z,15.70
2023-02-17T22:14:01.322Z,13.90
2023-02-17T22:16:35.619Z,15.45
2023-02-17T22:19:08.681Z,17.88
2023-02-17T22:21:35.915Z,15.82
2023-02-17T22:24:03.360Z,14.85
2023-02-17T22:26:31.343Z,18.30
2023-02-17T22:28:59.092Z,10.95
2023-02-17T22:31:30.143Z,18.63
2023-02-17T22:34:01.204Z,17.67
2023-02-17T22:36:31.962Z,18.05
2023-02-17T22:38:59.868Z,19.25
2023-02-17T22:41:27.492Z,19.83
2023-02-17T22:43:55.301Z,13.52
2023-02-17T22:46:25.419Z,15.70
2023-02-17T22:48:54.944Z,16.52
2023-02-17T22:51:29.652Z,15.90
2023-02-17T22:53:59.633Z,14.32
2023-02-17T22:56:27.871Z,16.83
2023-02-17T22:59:00.981Z,16.67
2023-02-17T23:01:31.491Z,13.93
2023-02-17T23:03:59.540Z,13.75
2023-02-17T23:06:33.372Z,17.67
2023-02-17T23:09:01.487Z,14.32
2023-02-17T23:11:51.543Z,18.70
2023-02-17T23:14:25.382Z,17.10
2023-02-17T23:16:57.700Z,22.48
2023-02-17T23:19:25.073Z,20.55
2023-02-17T23:21:57.078Z,13.65
2023-02-17T23:24:26.312Z,15.32
2023-02-17T23:26:57.969Z,22.15
2023-02-17T23:29:25.177Z,22.95
2023-02-17T23:31:53.196Z,17.55
2023-02-17T23:34:22.009Z,16.00
2023-02-17T23:36:49.673Z,17.67
2023-02-17T23:39:17.333Z,18.58
2023-02-17T23:41:45.201Z,20.52
2023-02-17T23:44:14.881Z,18.80
2023-02-17T23:46:43.684Z,21.27
2023-02-17T23:49:15.494Z,18.33
2023-02-17T23:51:43.522Z,17.10
2023-02-17T23:54:10.888Z,22.75
2023-02-17T23:56:38.531Z,14.52
2023-02-17T23:59:05.814Z,16.85
